Du har inga inställningar för hoppväder.nu

Hoppväder.nu

Senast uppdaterat 00:08

UTC-tid

2019-06-25 kl. 22:08


Sol och måne

Solen går upp 4:20 och går ner 22:53 (beräknade cirkatider)
Nästa fullmåne blir om 20 dagar (2019-07-16)

METAR

ESMK (Everöd)
(18 minuter sedan)
ESMK 252150Z AUTO 00000KT 0350 R01/P2000N R19/P2000N FG NCD 15/15 Q1022=



ESMS (Malmö)
(18 minuter sedan)
ESMS 252150Z 12007KT CAVOK 20/14 Q1021=



ESMX (Växjö)
(18 minuter sedan)
ESMX 252150Z AUTO 15004KT 9999 OVC170/// 20/12 Q1022=



ESDF (Ronneby)
(18 minuter sedan)
ESDF 252150Z AUTO 11003KT 9999 FEW180/// 17/14 Q1022=



EKRN (Rønne, Bornholm)
(18 minuter sedan)
EKRN 252150Z AUTO 08007KT 9999 NCD 21/14 Q1021=



TAF

ESMK (Everöd)
ESMK



ESMS (Malmö)
(307 minuter sedan)
ESMS 251701Z 2518/2618 12010KT 9999 SCT020 BECMG 2611/2614 31015KT TEMPO 2614/2618 31015G28KT=



ESMX (Växjö)
(458 minuter sedan)
ESMX 251430Z 2515/2519 18010KT CAVOK=



ESDF (Ronneby)
(278 minuter sedan)
ESDF 251730Z 2518/2522 15007KT CAVOK=



EKRN (Rønne, Bornholm)
(288 minuter sedan)
EKRN 251720Z 2518/2522 10010KT CAVOK=





Kodnycklar till TAF och METAR






LHP

(Everöd är område J3b i Hela Område E)

Prognos är inte uppdaterad




Spotting

Hur fungerar spotthjälpen och Vindkartan?

Markvind är ca 0 m/s.



Vindkartan

Senast uppdaterad 00:08




All data kommer från LFV.se